createdAt,value
2018-08-09T00:01:13.023Z,8.90
2018-08-09T00:03:41.159Z,9.50
2018-08-09T00:06:09.323Z,9.87
2018-08-09T00:08:37.462Z,9.23
2018-08-09T00:11:05.607Z,9.63
2018-08-09T00:13:33.767Z,10.10
2018-08-09T00:16:01.908Z,9.08
2018-08-09T00:18:30.011Z,10.07
2018-08-09T00:20:58.139Z,9.43
2018-08-09T00:23:26.291Z,9.80
2018-08-09T00:25:54.413Z,9.17
2018-08-09T00:28:22.549Z,9.43
2018-08-09T00:30:51.020Z,10.23
2018-08-09T00:33:19.202Z,9.87
2018-08-09T00:35:47.328Z,9.37
2018-08-09T00:38:15.474Z,10.05
2018-08-09T00:40:44.180Z,9.57
2018-08-09T00:43:13.493Z,9.53
2018-08-09T00:45:41.625Z,9.27
2018-08-09T00:48:09.942Z,10.73
2018-08-09T00:50:38.058Z,10.32
2018-08-09T00:53:06.201Z,10.30
2018-08-09T00:55:34.323Z,10.07
2018-08-09T00:58:02.484Z,11.20
2018-08-09T01:00:31.202Z,10.33
2018-08-09T01:02:59.410Z,10.05
2018-08-09T01:05:27.511Z,11.10
2018-08-09T01:07:55.700Z,11.10
2018-08-09T01:10:24.019Z,11.07
2018-08-09T01:12:52.154Z,10.60
2018-08-09T01:15:20.319Z,10.82
2018-08-09T01:17:48.474Z,10.67
2018-08-09T01:20:18.276Z,10.00
2018-08-09T01:22:46.451Z,10.37
2018-08-09T01:25:14.658Z,10.50
2018-08-09T01:27:42.780Z,10.98
2018-08-09T01:30:11.007Z,11.20
2018-08-09T01:32:39.142Z,11.40
2018-08-09T01:35:08.016Z,11.00
2018-08-09T01:37:36.520Z,10.90
2018-08-09T01:40:05.906Z,10.82
2018-08-09T01:42:45.570Z,11.23
2018-08-09T01:45:14.088Z,10.60
2018-08-09T01:47:43.440Z,10.78
2018-08-09T01:50:11.838Z,10.43
2018-08-09T01:52:39.982Z,10.95
2018-08-09T01:55:08.108Z,12.85
2018-08-09T01:57:36.252Z,11.83
2018-08-09T02:00:05.231Z,10.70
2018-08-09T02:02:33.399Z,10.60
2018-08-09T02:05:01.658Z,10.60
2018-08-09T02:07:29.804Z,11.00
2018-08-09T02:09:57.966Z,10.83
2018-08-09T02:12:26.985Z,10.82
2018-08-09T02:14:55.123Z,11.07
2018-08-09T02:17:23.987Z,10.40
2018-08-09T02:19:52.127Z,10.30
2018-08-09T02:22:20.261Z,9.73
2018-08-09T02:24:48.407Z,10.30
2018-08-09T02:27:16.549Z,10.07
2018-08-09T02:29:44.721Z,10.18
2018-08-09T02:32:12.853Z,10.17
2018-08-09T02:34:41.031Z,9.93
2018-08-09T02:37:09.189Z,9.98
2018-08-09T02:39:37.362Z,10.03
2018-08-09T02:42:05.502Z,10.13
2018-08-09T02:44:33.719Z,10.58
2018-08-09T02:47:02.004Z,10.53
2018-08-09T02:49:30.919Z,10.43
2018-08-09T02:51:59.031Z,10.40
2018-08-09T02:54:27.197Z,11.45
2018-08-09T02:56:55.363Z,10.97
2018-08-09T02:59:23.550Z,10.93
2018-08-09T03:01:51.691Z,10.40
2018-08-09T03:04:19.821Z,12.73
2018-08-09T03:06:47.969Z,12.50
2018-08-09T03:09:16.122Z,12.80
2018-08-09T03:11:44.241Z,12.93
2018-08-09T03:14:12.505Z,13.50
2018-08-09T03:16:40.662Z,13.75
2018-08-09T03:19:08.819Z,14.00
2018-08-09T03:21:36.991Z,16.00
2018-08-09T03:24:05.194Z,14.78
2018-08-09T03:26:33.325Z,14.47
2018-08-09T03:29:01.475Z,15.73
2018-08-09T03:31:29.672Z,16.50
2018-08-09T03:33:57.868Z,17.17
2018-08-09T03:36:26.046Z,16.37
2018-08-09T03:38:54.185Z,16.25
2018-08-09T03:41:22.346Z,18.17
2018-08-09T03:43:50.522Z,14.57
2018-08-09T03:46:18.662Z,15.08
2018-08-09T03:48:46.814Z,15.90
2018-08-09T03:51:14.983Z,15.80
2018-08-09T03:53:43.145Z,14.28
2018-08-09T03:56:11.286Z,16.10
2018-08-09T03:58:39.421Z,16.43
2018-08-09T04:01:07.604Z,16.87
2018-08-09T04:03:35.745Z,15.77
2018-08-09T04:06:03.853Z,18.10
2018-08-09T04:08:32.150Z,17.27
2018-08-09T04:11:00.300Z,18.43
2018-08-09T04:13:28.497Z,17.10
2018-08-09T04:15:56.692Z,16.45
2018-08-09T04:18:24.836Z,15.83
2018-08-09T04:20:52.989Z,15.90
2018-08-09T04:23:21.124Z,15.88
2018-08-09T04:25:49.263Z,14.30
2018-08-09T04:28:17.402Z,14.50
2018-08-09T04:30:45.555Z,14.33
2018-08-09T04:33:13.701Z,15.30
2018-08-09T04:35:41.839Z,15.40
2018-08-09T04:38:09.983Z,15.00
2018-08-09T04:40:38.159Z,14.93
2018-08-09T04:43:06.343Z,15.67
2018-08-09T04:45:34.514Z,16.37
2018-08-09T04:48:02.712Z,16.23
2018-08-09T04:50:30.998Z,15.60
2018-08-09T04:52:59.145Z,16.50
2018-08-09T04:55:27.268Z,15.13
2018-08-09T04:57:55.503Z,15.17
2018-08-09T05:00:23.667Z,16.55
2018-08-09T05:02:51.784Z,14.20
2018-08-09T05:05:19.952Z,14.00
2018-08-09T05:07:48.120Z,13.70
2018-08-09T05:10:16.311Z,13.63
2018-08-09T05:12:44.450Z,14.03
2018-08-09T05:15:13.212Z,14.50
2018-08-09T05:17:41.353Z,14.37
2018-08-09T05:20:09.555Z,14.67
2018-08-09T05:22:37.746Z,15.43
2018-08-09T05:25:06.091Z,14.17
2018-08-09T05:27:34.236Z,17.27
2018-08-09T05:30:02.415Z,16.48
2018-08-09T05:32:30.618Z,16.80
2018-08-09T05:34:58.767Z,15.23
2018-08-09T05:37:26.910Z,15.45
2018-08-09T05:39:55.102Z,15.90
2018-08-09T05:42:23.231Z,15.97
2018-08-09T05:44:51.368Z,15.30
2018-08-09T05:47:19.555Z,15.60
2018-08-09T05:49:47.715Z,14.73
2018-08-09T05:52:15.858Z,15.78
2018-08-09T05:54:45.205Z,15.33
2018-08-09T05:57:13.359Z,14.80
2018-08-09T05:59:41.522Z,14.50
2018-08-09T06:02:09.678Z,15.13
2018-08-09T06:04:38.875Z,13.67
2018-08-09T06:07:07.227Z,12.53
2018-08-09T06:09:36.020Z,12.53
2018-08-09T06:12:04.241Z,12.43
2018-08-09T06:14:32.399Z,12.40
2018-08-09T06:17:00.556Z,12.10
2018-08-09T06:19:28.734Z,11.47
2018-08-09T06:21:56.951Z,9.85
2018-08-09T06:24:25.099Z,9.43
2018-08-09T06:26:53.280Z,11.03
2018-08-09T06:29:21.440Z,10.48
2018-08-09T06:31:49.694Z,10.97
2018-08-09T06:34:18.078Z,10.80
2018-08-09T06:36:46.256Z,10.28
2018-08-09T06:39:14.439Z,10.83
2018-08-09T06:41:42.589Z,10.73
2018-08-09T06:44:10.819Z,10.85
2018-08-09T06:46:39.072Z,11.13
2018-08-09T06:49:07.342Z,10.83
2018-08-09T06:51:35.520Z,10.90
2018-08-09T06:54:03.683Z,11.17
2018-08-09T06:56:31.868Z,11.53
2018-08-09T06:59:00.041Z,10.30
2018-08-09T07:01:28.178Z,10.83
2018-08-09T07:03:56.323Z,10.53
2018-08-09T07:06:25.405Z,10.68
2018-08-09T07:08:53.607Z,10.80
2018-08-09T07:11:24.333Z,11.13
2018-08-09T07:13:53.080Z,9.63
2018-08-09T07:16:21.723Z,9.57
2018-08-09T07:18:50.579Z,9.40
2018-08-09T07:21:19.281Z,8.90
2018-08-09T07:23:48.208Z,8.93
2018-08-09T07:26:16.444Z,8.90
2018-08-09T07:28:44.672Z,8.05
2018-08-09T07:31:12.878Z,9.03
2018-08-09T07:33:41.067Z,8.43
2018-08-09T07:36:09.206Z,7.42
2018-08-09T07:38:37.701Z,7.60
2018-08-09T07:41:05.855Z,7.37
2018-08-09T07:43:34.150Z,8.03
2018-08-09T07:46:02.307Z,7.43
2018-08-09T07:48:30.486Z,7.10
2018-08-09T07:50:58.635Z,5.77
2018-08-09T07:53:26.810Z,5.72
2018-08-09T07:55:54.974Z,5.40
2018-08-09T07:58:23.103Z,5.70
2018-08-09T08:00:51.332Z,5.30
2018-08-09T08:03:19.506Z,6.63
2018-08-09T08:05:47.732Z,7.10
2018-08-09T08:08:15.866Z,6.08
2018-08-09T08:10:43.981Z,5.57
2018-08-09T08:13:12.170Z,5.73
2018-08-09T08:15:40.289Z,5.60
2018-08-09T08:18:08.523Z,5.57
2018-08-09T08:20:36.757Z,5.73
2018-08-09T08:23:04.951Z,5.17
2018-08-09T08:25:33.082Z,4.80
2018-08-09T08:28:01.308Z,4.97
2018-08-09T08:30:29.539Z,5.47
2018-08-09T08:32:57.694Z,5.13
2018-08-09T08:35:25.821Z,4.73
2018-08-09T08:37:53.981Z,4.85
2018-08-09T08:40:22.134Z,5.07
2018-08-09T08:42:50.853Z,5.43
2018-08-09T08:45:19.012Z,5.40
2018-08-09T08:47:47.179Z,4.77
2018-08-09T08:50:15.321Z,5.00
2018-08-09T08:52:43.462Z,5.80
2018-08-09T08:55:12.582Z,5.25
2018-08-09T08:57:40.652Z,5.23
2018-08-09T09:00:10.659Z,5.47
2018-08-09T09:02:39.380Z,5.00
2018-08-09T09:05:09.373Z,4.83
2018-08-09T09:07:38.385Z,5.17
2018-08-09T09:10:07.475Z,4.97
2018-08-09T09:12:35.661Z,5.07
2018-08-09T09:15:06.322Z,5.33
2018-08-09T09:17:34.492Z,5.77
2018-08-09T09:20:02.983Z,5.43
2018-08-09T09:22:31.122Z,5.30
2018-08-09T09:24:59.319Z,5.47
2018-08-09T09:27:27.517Z,5.97
2018-08-09T09:29:55.679Z,5.53
2018-08-09T09:32:24.182Z,5.83
2018-08-09T09:34:52.352Z,5.62
2018-08-09T09:37:20.578Z,5.90
2018-08-09T09:39:48.710Z,5.23
2018-08-09T09:42:16.872Z,5.80
2018-08-09T09:44:45.042Z,5.60
2018-08-09T09:47:13.210Z,5.63
2018-08-09T09:49:41.386Z,5.20
2018-08-09T09:52:09.666Z,5.28
2018-08-09T09:54:37.838Z,5.73
2018-08-09T09:57:05.967Z,5.17
2018-08-09T09:59:34.097Z,5.75
2018-08-09T10:02:02.317Z,5.63
2018-08-09T10:04:30.400Z,5.73
2018-08-09T10:06:58.598Z,5.62
2018-08-09T10:09:26.728Z,6.10
2018-08-09T10:11:54.862Z,5.40
2018-08-09T10:14:22.994Z,6.20
2018-08-09T10:16:52.015Z,5.87
2018-08-09T10:19:20.210Z,6.00
2018-08-09T10:21:48.359Z,5.73
2018-08-09T10:24:16.527Z,5.70
2018-08-09T10:26:44.683Z,5.90
2018-08-09T10:29:12.822Z,4.57
2018-08-09T10:31:40.954Z,5.55
2018-08-09T10:34:09.095Z,5.77
2018-08-09T10:36:37.247Z,5.43
2018-08-09T10:39:09.391Z,6.35
2018-08-09T10:41:37.519Z,5.90
2018-08-09T10:44:05.630Z,6.03
2018-08-09T10:46:33.774Z,5.63
2018-08-09T10:49:02.002Z,5.40
2018-08-09T10:51:30.078Z,5.80
2018-08-09T10:53:59.091Z,5.87
2018-08-09T10:56:27.219Z,6.40
2018-08-09T10:58:55.357Z,5.70
2018-08-09T11:01:23.516Z,6.23
2018-08-09T11:03:51.807Z,6.47
2018-08-09T11:06:19.955Z,6.00
2018-08-09T11:08:48.082Z,6.12
2018-08-09T11:11:16.228Z,6.13
2018-08-09T11:13:45.437Z,6.20
2018-08-09T11:16:14.375Z,5.90
2018-08-09T11:18:43.332Z,5.92
2018-08-09T11:21:11.574Z,5.67
2018-08-09T11:23:39.908Z,5.97
2018-08-09T11:26:08.056Z,5.83
2018-08-09T11:28:36.223Z,5.43
2018-08-09T11:31:04.382Z,5.60
2018-08-09T11:33:32.621Z,6.22
2018-08-09T11:36:00.778Z,4.77
2018-08-09T11:38:28.946Z,7.50
2018-08-09T11:40:57.136Z,11.38
2018-08-09T11:43:25.251Z,11.67
2018-08-09T11:45:53.400Z,14.83
2018-08-09T11:48:21.570Z,13.00
2018-08-09T11:50:49.721Z,12.63
2018-08-09T11:53:17.851Z,13.67
2018-08-09T11:55:45.987Z,11.37
2018-08-09T11:58:14.154Z,10.93
2018-08-09T12:00:42.294Z,12.00
2018-08-09T12:03:10.443Z,9.03
2018-08-09T12:05:38.619Z,10.07
2018-08-09T12:08:06.791Z,8.40
2018-08-09T12:10:34.990Z,8.78
2018-08-09T12:13:03.210Z,9.10
2018-08-09T12:15:31.360Z,7.40
2018-08-09T12:17:59.498Z,9.00
2018-08-09T12:20:27.607Z,8.37
2018-08-09T12:22:55.791Z,5.07
2018-08-09T12:25:24.774Z,4.78
2018-08-09T12:27:52.898Z,7.13
2018-08-09T12:30:21.120Z,4.37
2018-08-09T12:32:49.235Z,4.40
2018-08-09T12:35:17.394Z,4.67
2018-08-09T12:37:45.545Z,4.23
2018-08-09T12:40:13.718Z,5.00
2018-08-09T12:42:41.888Z,4.10
2018-08-09T12:45:11.673Z,3.93
2018-08-09T12:47:40.234Z,3.50
2018-08-09T12:50:10.938Z,3.00
2018-08-09T12:52:39.583Z,3.13
2018-08-09T12:55:08.110Z,3.17
2018-08-09T12:57:36.863Z,3.23
2018-08-09T13:00:06.790Z,3.47
2018-08-09T13:02:34.854Z,3.80
2018-08-09T13:05:02.994Z,3.30
2018-08-09T13:07:31.135Z,3.03
2018-08-09T13:09:59.323Z,2.83
2018-08-09T13:12:28.613Z,3.60
2018-08-09T13:14:56.758Z,3.02
2018-08-09T13:17:24.996Z,3.37
2018-08-09T13:19:53.150Z,2.73
2018-08-09T13:22:21.262Z,2.40
2018-08-09T13:24:49.428Z,2.80
2018-08-09T13:27:17.582Z,2.60
2018-08-09T13:29:45.698Z,2.40
2018-08-09T13:32:13.867Z,2.57
2018-08-09T13:34:42.044Z,2.50
2018-08-09T13:37:10.194Z,2.40
2018-08-09T13:39:38.349Z,2.70
2018-08-09T13:42:06.482Z,2.58
2018-08-09T13:44:34.650Z,2.30
2018-08-09T13:47:02.773Z,2.30
2018-08-09T13:49:30.889Z,2.22
2018-08-09T13:51:59.027Z,2.60
2018-08-09T13:54:27.152Z,2.77
2018-08-09T13:56:55.298Z,2.93
2018-08-09T13:59:23.451Z,2.60
2018-08-09T14:01:51.593Z,2.70
2018-08-09T14:04:20.158Z,2.70
2018-08-09T14:06:48.307Z,2.73
2018-08-09T14:09:16.470Z,2.47
2018-08-09T14:11:44.651Z,2.72
2018-08-09T14:14:12.935Z,2.40
2018-08-09T14:16:41.109Z,2.50
2018-08-09T14:19:09.992Z,2.30
2018-08-09T14:21:38.511Z,2.30
2018-08-09T14:24:07.267Z,2.65
2018-08-09T14:26:35.418Z,2.40
2018-08-09T14:29:03.666Z,3.02
2018-08-09T14:31:31.807Z,2.63
2018-08-09T14:33:59.950Z,2.23
2018-08-09T14:36:28.120Z,2.40
2018-08-09T14:38:56.244Z,2.20
2018-08-09T14:41:24.378Z,2.10
2018-08-09T14:43:52.571Z,2.30
2018-08-09T14:46:20.743Z,2.20
2018-08-09T14:48:48.884Z,2.20
2018-08-09T14:51:17.050Z,2.02
2018-08-09T14:53:45.275Z,3.00
2018-08-09T14:56:13.351Z,2.30
2018-08-09T14:58:41.513Z,1.90
2018-08-09T15:01:09.701Z,2.17
2018-08-09T15:03:37.818Z,2.40
2018-08-09T15:06:06.198Z,2.25
2018-08-09T15:08:34.352Z,2.60
2018-08-09T15:11:02.533Z,2.43
2018-08-09T15:13:31.046Z,2.35
2018-08-09T15:15:59.183Z,2.10
2018-08-09T15:18:27.364Z,2.40
2018-08-09T15:20:55.550Z,2.27
2018-08-09T15:23:23.694Z,2.20
2018-08-09T15:25:51.890Z,2.30
2018-08-09T15:28:20.035Z,2.00
2018-08-09T15:30:48.205Z,2.07
2018-08-09T15:33:16.303Z,2.20
2018-08-09T15:35:45.450Z,2.30
2018-08-09T15:38:13.785Z,2.40
2018-08-09T15:40:41.878Z,1.87
2018-08-09T15:43:10.012Z,2.20
2018-08-09T15:45:38.151Z,2.10
2018-08-09T15:48:06.665Z,2.37
2018-08-09T15:50:34.810Z,2.22
2018-08-09T15:53:03.042Z,2.30
2018-08-09T15:55:31.235Z,2.47
2018-08-09T15:57:59.458Z,2.50
2018-08-09T16:00:27.675Z,2.50
2018-08-09T16:02:55.896Z,2.20
2018-08-09T16:05:24.098Z,2.07
2018-08-09T16:07:52.306Z,2.35
2018-08-09T16:10:20.485Z,2.60
2018-08-09T16:12:48.662Z,2.40
2018-08-09T16:15:18.145Z,1.87
2018-08-09T16:17:47.228Z,2.23
2018-08-09T16:20:15.587Z,1.70
2018-08-09T16:22:45.564Z,1.90
2018-08-09T16:25:14.983Z,1.70
2018-08-09T16:27:43.274Z,1.77
2018-08-09T16:30:15.926Z,1.97
2018-08-09T16:32:44.103Z,1.80
2018-08-09T16:35:12.844Z,1.87
2018-08-09T16:37:41.761Z,1.70
2018-08-09T16:40:12.042Z,1.73
2018-08-09T16:42:40.760Z,1.80
2018-08-09T16:45:09.996Z,1.60
2018-08-09T16:47:38.427Z,1.63
2018-08-09T16:50:07.644Z,2.15
2018-08-09T16:52:35.948Z,1.60
2018-08-09T16:55:04.823Z,1.63
2018-08-09T16:57:32.970Z,1.60
2018-08-09T17:00:01.144Z,2.07
2018-08-09T17:02:29.322Z,1.70
2018-08-09T17:04:57.619Z,1.90
2018-08-09T17:07:25.791Z,1.70
2018-08-09T17:09:53.933Z,1.60
2018-08-09T17:12:22.105Z,1.77
2018-08-09T17:14:50.247Z,1.77
2018-08-09T17:17:18.389Z,2.10
2018-08-09T17:19:46.510Z,1.70
2018-08-09T17:22:14.726Z,1.80
2018-08-09T17:24:42.951Z,1.83
2018-08-09T17:27:11.128Z,1.97
2018-08-09T17:29:39.414Z,1.90
2018-08-09T17:32:07.682Z,2.03
2018-08-09T17:34:35.815Z,1.40
2018-08-09T17:37:04.019Z,2.00
2018-08-09T17:39:32.163Z,1.80
2018-08-09T17:42:00.338Z,2.20
2018-08-09T17:44:28.516Z,2.70
2018-08-09T17:46:56.675Z,1.80
2018-08-09T17:49:24.782Z,1.70
2018-08-09T17:51:53.277Z,1.77
2018-08-09T17:54:21.867Z,1.90
2018-08-09T17:56:50.895Z,2.10
2018-08-09T17:59:20.094Z,2.00
2018-08-09T18:01:48.639Z,1.80
2018-08-09T18:04:17.099Z,1.80
2018-08-09T18:06:45.304Z,1.70
2018-08-09T18:09:13.551Z,1.98
2018-08-09T18:11:41.819Z,1.70
2018-08-09T18:14:09.988Z,1.90
2018-08-09T18:16:38.576Z,1.62
2018-08-09T18:19:07.449Z,1.77
2018-08-09T18:21:35.677Z,1.80
2018-08-09T18:24:03.943Z,1.57
2018-08-09T18:26:32.220Z,1.65
2018-08-09T18:29:00.507Z,1.47
2018-08-09T18:31:28.711Z,1.60
2018-08-09T18:33:57.024Z,1.52
2018-08-09T18:36:25.216Z,1.30
2018-08-09T18:38:53.419Z,1.40
2018-08-09T18:41:21.658Z,1.60
2018-08-09T18:43:49.907Z,1.30
2018-08-09T18:46:18.114Z,1.23
2018-08-09T18:48:46.977Z,1.25
2018-08-09T18:51:15.231Z,1.40
2018-08-09T18:53:43.427Z,1.30
2018-08-09T18:56:11.619Z,1.35
2018-08-09T18:58:39.799Z,1.30
2018-08-09T19:01:09.571Z,1.30
2018-08-09T19:03:37.897Z,1.30
2018-08-09T19:06:06.189Z,1.30
2018-08-09T19:08:34.620Z,1.35
2018-08-09T19:11:03.187Z,1.23
2018-08-09T19:13:31.357Z,1.00
2018-08-09T19:15:59.559Z,1.20
2018-08-09T19:18:27.772Z,1.27
2018-08-09T19:20:55.898Z,1.00
2018-08-09T19:23:24.099Z,1.03
2018-08-09T19:25:52.817Z,1.20
2018-08-09T19:28:20.985Z,1.00
2018-08-09T19:30:49.295Z,1.03
2018-08-09T19:33:17.544Z,1.20
2018-08-09T19:35:45.850Z,1.03
2018-08-09T19:38:14.053Z,1.10
2018-08-09T19:40:42.550Z,1.20
2018-08-09T19:43:11.051Z,1.10
2018-08-09T19:45:39.260Z,1.10
2018-08-09T19:48:07.500Z,1.20
2018-08-09T19:50:35.631Z,1.00
2018-08-09T19:53:03.879Z,1.20
2018-08-09T19:55:32.522Z,1.10
2018-08-09T19:58:00.940Z,1.10
2018-08-09T20:00:30.479Z,1.17
2018-08-09T20:02:58.661Z,1.10
2018-08-09T20:05:26.841Z,1.30
2018-08-09T20:07:55.175Z,1.25
2018-08-09T20:10:23.414Z,1.20
2018-08-09T20:12:51.652Z,1.30
2018-08-09T20:15:21.772Z,1.40
2018-08-09T20:17:50.090Z,1.30
2018-08-09T20:20:19.867Z,1.40
2018-08-09T20:22:49.074Z,1.23
2018-08-09T20:25:17.229Z,1.23
2018-08-09T20:27:46.265Z,1.40
2018-08-09T20:30:16.092Z,1.40
2018-08-09T20:32:45.104Z,1.20
2018-08-09T20:35:14.908Z,1.20
2018-08-09T20:37:44.124Z,1.10
2018-08-09T20:40:12.918Z,1.40
2018-08-09T20:42:41.606Z,1.57
2018-08-09T20:45:13.934Z,1.30
2018-08-09T20:47:42.182Z,1.30
2018-08-09T20:50:13.483Z,1.20
2018-08-09T20:52:42.323Z,1.40
2018-08-09T20:55:12.461Z,1.30
2018-08-09T20:57:42.472Z,1.30
2018-08-09T21:00:14.418Z,1.13
2018-08-09T21:02:43.848Z,1.20
2018-08-09T21:05:17.430Z,1.10
2018-08-09T21:07:47.874Z,1.30
2018-08-09T21:10:16.673Z,1.17
2018-08-09T21:12:45.073Z,1.30
2018-08-09T21:15:13.337Z,1.30
2018-08-09T21:17:41.726Z,1.30
2018-08-09T21:20:10.127Z,1.20
2018-08-09T21:22:38.916Z,1.17
2018-08-09T21:25:08.072Z,1.30
2018-08-09T21:27:36.235Z,1.30
2018-08-09T21:30:05.507Z,1.10
2018-08-09T21:32:34.095Z,1.20
2018-08-09T21:35:02.723Z,1.00
2018-08-09T21:37:31.007Z,1.20
2018-08-09T21:39:59.565Z,1.00
2018-08-09T21:42:27.780Z,1.17
2018-08-09T21:44:56.244Z,1.10
2018-08-09T21:47:24.497Z,1.10
2018-08-09T21:49:52.691Z,1.17
2018-08-09T21:52:20.896Z,1.10
2018-08-09T21:54:49.203Z,1.00
2018-08-09T21:57:17.383Z,1.00
2018-08-09T21:59:46.955Z,1.10
2018-08-09T22:02:17.423Z,1.17
2018-08-09T22:04:52.146Z,1.20
2018-08-09T22:07:25.835Z,1.00
2018-08-09T22:09:59.484Z,1.00
2018-08-09T22:12:33.221Z,0.97
2018-08-09T22:15:06.879Z,1.10
2018-08-09T22:17:40.536Z,1.07
2018-08-09T22:20:14.248Z,1.10
2018-08-09T22:22:42.446Z,1.20
2018-08-09T22:25:10.697Z,0.90
2018-08-09T22:27:38.903Z,1.00
2018-08-09T22:30:10.012Z,0.70
2018-08-09T22:32:41.134Z,0.70
2018-08-09T22:35:09.470Z,0.50
2018-08-09T22:37:38.522Z,0.57
2018-08-09T22:40:07.280Z,0.60
2018-08-09T22:42:35.569Z,0.63
2018-08-09T22:45:04.386Z,0.80
2018-08-09T22:47:32.700Z,0.90
2018-08-09T22:50:00.878Z,0.70
2018-08-09T22:52:29.109Z,0.90
2018-08-09T22:54:57.312Z,0.80
2018-08-09T22:57:26.051Z,0.60
2018-08-09T22:59:54.206Z,0.70
2018-08-09T23:02:23.106Z,0.70
2018-08-09T23:04:51.721Z,0.80
2018-08-09T23:07:19.981Z,0.80
2018-08-09T23:09:48.675Z,1.07
2018-08-09T23:12:18.169Z,0.90
2018-08-09T23:14:47.284Z,0.80
2018-08-09T23:17:16.407Z,0.95
2018-08-09T23:19:44.819Z,0.80
2018-08-09T23:22:17.659Z,0.80
2018-08-09T23:24:46.948Z,0.80
2018-08-09T23:27:15.688Z,1.10
2018-08-09T23:29:47.127Z,0.90
2018-08-09T23:32:17.324Z,0.83
2018-08-09T23:34:45.711Z,0.90
2018-08-09T23:37:14.676Z,1.07
2018-08-09T23:39:43.680Z,1.00
2018-08-09T23:42:12.141Z,0.82
2018-08-09T23:44:40.424Z,0.90
2018-08-09T23:47:08.693Z,1.07
2018-08-09T23:49:37.049Z,0.90
2018-08-09T23:52:06.213Z,0.90
2018-08-09T23:54:34.552Z,0.93
2018-08-09T23:57:02.837Z,0.97
2018-08-09T23:59:31.038Z,1.17
